マヘ島 の空港の天気 - METARとTAF

セーシェル国際空港 ( FSIA / SEZ ) - セーシェル マヘ島
飛行場実況気象(Metar)
観測時間08/11 11:00 SCT (08/11 07:00 UTC)
風向・風速東南東 6m/s
視程10km以上
天気現象
少しの雲 雲底高度 550m
気温27℃
湿度74%
気圧1013hPa
METARFSIA 110700Z 11012KT 070V140 9999 FEW018 27/22 Q1013 NOSIG
過去の天気等 Google飛行場航空写真 Wunderground天気予報

過去48時間のMETAR

飛行場予報(TAF)
発表時間: 8/11 09:02 SCT (8/11 05:02 UTC)
予報対象時間: 11日10時 SCT ~ 12日10時 SCT
風向・風速南南東 8m/s
視程10km以上
少しの雲 雲底高度 610m
TAF FSIA 110502Z 1106/1206 16015KT 9999 FEW020